createdAt,value
2024-03-29T00:01:15.893Z,100.00
2024-03-29T00:05:14.897Z,100.00
2024-03-29T00:09:12.865Z,100.00
2024-03-29T00:13:09.875Z,100.00
2024-03-29T00:17:06.868Z,100.00
2024-03-29T00:21:03.869Z,100.00
2024-03-29T00:25:01.911Z,100.00
2024-03-29T00:28:58.932Z,100.00
2024-03-29T00:32:56.850Z,100.00
2024-03-29T00:36:53.836Z,100.00
2024-03-29T00:40:50.897Z,100.00
2024-03-29T00:44:47.868Z,100.00
2024-03-29T00:48:44.839Z,100.00
2024-03-29T00:52:41.807Z,100.00
2024-03-29T00:56:38.929Z,100.00
2024-03-29T01:00:36.903Z,100.00
2024-03-29T01:04:34.794Z,100.00
2024-03-29T01:08:32.825Z,100.00
2024-03-29T01:12:29.827Z,100.00
2024-03-29T01:16:26.825Z,100.00
2024-03-29T01:20:24.822Z,100.00
2024-03-29T01:24:21.791Z,100.00
2024-03-29T01:28:18.805Z,100.00
2024-03-29T01:32:15.776Z,100.00
2024-03-29T01:36:13.772Z,100.00
2024-03-29T01:40:11.771Z,100.00
2024-03-29T01:44:08.787Z,100.00
2024-03-29T01:48:05.751Z,100.00
2024-03-29T01:52:02.783Z,100.00
2024-03-29T01:56:00.778Z,100.00
2024-03-29T02:00:01.833Z,100.00
2024-03-29T02:03:58.739Z,100.00
2024-03-29T02:07:55.725Z,100.00
2024-03-29T02:11:52.722Z,100.00
2024-03-29T02:15:49.794Z,100.00
2024-03-29T02:19:47.743Z,100.00
2024-03-29T02:23:46.741Z,100.00
2024-03-29T02:27:43.734Z,100.00
2024-03-29T02:31:40.735Z,100.00
2024-03-29T02:35:38.733Z,100.00
2024-03-29T02:39:36.740Z,100.00
2024-03-29T02:43:34.739Z,100.00
2024-03-29T02:47:32.715Z,100.00
2024-03-29T02:51:30.791Z,100.00
2024-03-29T02:55:27.716Z,100.00
2024-03-29T02:59:25.661Z,100.00
2024-03-29T03:03:22.733Z,100.00
2024-03-29T03:07:46.669Z,100.00
2024-03-29T03:11:43.669Z,100.00
2024-03-29T03:15:40.662Z,100.00
2024-03-29T03:19:38.640Z,100.00
2024-03-29T03:23:36.800Z,100.00
2024-03-29T03:27:33.656Z,100.00
2024-03-29T03:31:31.636Z,100.00
2024-03-29T03:35:29.204Z,100.00
2024-03-29T03:39:27.648Z,100.00
2024-03-29T03:43:25.724Z,100.00
2024-03-29T03:47:23.633Z,100.00
2024-03-29T03:51:20.627Z,100.00
2024-03-29T03:55:17.610Z,100.00
2024-03-29T03:59:14.674Z,100.00
2024-03-29T04:03:12.594Z,100.00
2024-03-29T04:07:09.615Z,100.00
2024-03-29T04:11:06.670Z,100.00
2024-03-29T04:15:03.585Z,100.00
2024-03-29T04:19:01.638Z,100.00
2024-03-29T04:22:58.606Z,100.00
2024-03-29T04:26:55.596Z,100.00
2024-03-29T04:30:52.570Z,100.00
2024-03-29T04:34:50.579Z,100.00
2024-03-29T04:38:48.666Z,100.00
2024-03-29T04:42:45.534Z,100.00
2024-03-29T04:46:44.546Z,100.00
2024-03-29T04:50:42.563Z,100.00
2024-03-29T04:54:39.557Z,100.00
2024-03-29T04:58:41.555Z,100.00
2024-03-29T05:02:38.537Z,100.00
2024-03-29T05:06:35.548Z,100.00
2024-03-29T05:10:32.549Z,100.00
2024-03-29T05:14:31.556Z,100.00
2024-03-29T05:18:29.586Z,100.00
2024-03-29T05:22:26.489Z,100.00
2024-03-29T05:26:24.506Z,100.00
2024-03-29T05:30:21.513Z,100.00
2024-03-29T05:34:18.544Z,100.00
2024-03-29T05:38:15.510Z,100.00
2024-03-29T05:42:13.549Z,100.00
2024-03-29T05:46:10.506Z,100.00
2024-03-29T05:50:08.551Z,100.00
2024-03-29T05:54:05.483Z,100.00
2024-03-29T05:58:02.529Z,100.00
2024-03-29T06:02:00.460Z,100.00
2024-03-29T06:05:57.459Z,100.00
2024-03-29T06:09:54.488Z,100.00
2024-03-29T06:14:09.466Z,100.00
2024-03-29T06:18:06.457Z,100.00
2024-03-29T06:22:03.441Z,100.00
2024-03-29T06:26:01.484Z,100.00
2024-03-29T06:29:58.427Z,100.00
2024-03-29T06:33:35.734Z,100.00
2024-03-29T06:36:59.159Z,100.00
2024-03-29T06:40:22.610Z,100.00
2024-03-29T06:43:46.441Z,100.00
2024-03-29T06:47:10.573Z,100.00
2024-03-29T06:50:34.071Z,100.00
2024-03-29T06:53:58.010Z,100.00
2024-03-29T06:57:26.119Z,100.00
2024-03-29T07:00:50.220Z,100.00
2024-03-29T07:04:13.780Z,100.00
2024-03-29T07:07:37.858Z,100.00
2024-03-29T07:11:04.916Z,100.00
2024-03-29T07:14:29.418Z,100.00
2024-03-29T07:17:53.566Z,100.00
2024-03-29T07:21:17.454Z,100.00
2024-03-29T07:24:41.098Z,100.00
2024-03-29T07:28:05.055Z,100.00
2024-03-29T07:31:28.586Z,100.00
2024-03-29T07:34:52.040Z,100.00
2024-03-29T07:38:16.394Z,100.00
2024-03-29T07:41:40.035Z,100.00
2024-03-29T07:45:04.080Z,100.00
2024-03-29T07:48:27.702Z,100.00
2024-03-29T07:51:51.349Z,100.00
2024-03-29T07:55:15.365Z,100.00
2024-03-29T07:58:38.873Z,100.00
2024-03-29T08:02:03.415Z,100.00
2024-03-29T08:05:26.996Z,100.00
2024-03-29T08:08:51.685Z,100.00
2024-03-29T08:12:15.176Z,100.00
2024-03-29T08:15:38.758Z,100.00
2024-03-29T08:19:02.241Z,100.00
2024-03-29T08:22:25.822Z,100.00
2024-03-29T08:25:49.899Z,100.00
2024-03-29T08:29:13.429Z,100.00
2024-03-29T08:32:36.922Z,100.00
2024-03-29T08:36:00.480Z,100.00
2024-03-29T08:39:23.993Z,100.00
2024-03-29T08:42:47.563Z,100.00
2024-03-29T08:46:11.085Z,100.00
2024-03-29T08:49:34.612Z,100.00
2024-03-29T08:52:58.290Z,100.00
2024-03-29T08:56:21.829Z,100.00
2024-03-29T08:59:46.347Z,100.00
2024-03-29T09:03:09.883Z,100.00
2024-03-29T09:06:33.516Z,100.00
2024-03-29T09:09:57.004Z,100.00
2024-03-29T09:13:20.488Z,100.00
2024-03-29T09:16:44.041Z,100.00
2024-03-29T09:20:08.820Z,100.00
2024-03-29T09:23:32.313Z,100.00
2024-03-29T09:26:55.847Z,100.00
2024-03-29T09:30:19.885Z,100.00
2024-03-29T09:33:43.301Z,100.00
2024-03-29T09:37:06.755Z,100.00
2024-03-29T09:40:30.377Z,100.00
2024-03-29T09:43:55.828Z,100.00
2024-03-29T09:47:20.488Z,100.00
2024-03-29T09:50:44.111Z,100.00
2024-03-29T09:54:12.852Z,100.00
2024-03-29T09:57:37.224Z,99.91
2024-03-29T10:01:00.732Z,99.93
2024-03-29T10:04:25.997Z,100.00
2024-03-29T10:07:50.041Z,100.00
2024-03-29T10:11:13.731Z,100.00
2024-03-29T10:14:50.249Z,100.00
2024-03-29T10:18:13.825Z,100.00
2024-03-29T10:21:37.731Z,100.00
2024-03-29T10:25:01.213Z,100.00
2024-03-29T10:28:25.722Z,98.37
2024-03-29T10:31:50.790Z,99.07
2024-03-29T10:35:14.266Z,96.43
2024-03-29T10:38:37.892Z,92.98
2024-03-29T10:42:02.121Z,99.55
2024-03-29T10:45:26.445Z,95.95
2024-03-29T10:48:51.115Z,89.92
2024-03-29T10:52:18.113Z,90.21
2024-03-29T10:55:42.363Z,88.40
2024-03-29T10:59:23.276Z,84.64
2024-03-29T11:03:05.380Z,89.90
2024-03-29T11:06:33.269Z,88.48
2024-03-29T11:10:02.366Z,86.25
2024-03-29T11:14:08.008Z,85.96
2024-03-29T11:17:32.858Z,83.29
2024-03-29T11:20:59.766Z,88.94
2024-03-29T11:24:25.353Z,84.31
2024-03-29T11:27:49.836Z,84.18
2024-03-29T11:31:15.715Z,79.64
2024-03-29T11:34:45.935Z,81.54
2024-03-29T11:38:09.728Z,75.67
2024-03-29T11:41:33.403Z,69.83
2024-03-29T11:44:56.984Z,68.80
2024-03-29T11:48:28.580Z,66.18
2024-03-29T11:51:52.171Z,67.14
2024-03-29T11:55:16.192Z,65.17
2024-03-29T11:58:40.093Z,66.04
2024-03-29T12:02:04.186Z,66.56
2024-03-29T12:05:27.754Z,64.81
2024-03-29T12:08:54.170Z,65.91
2024-03-29T12:12:18.681Z,66.73
2024-03-29T12:15:42.427Z,64.29
2024-03-29T12:19:05.916Z,61.92
2024-03-29T12:22:29.391Z,58.72
2024-03-29T12:25:58.568Z,57.59
2024-03-29T12:29:22.499Z,56.28
2024-03-29T12:32:46.237Z,57.78
2024-03-29T12:36:09.921Z,55.71
2024-03-29T12:39:34.693Z,54.39
2024-03-29T12:42:59.584Z,54.71
2024-03-29T12:46:23.156Z,53.43
2024-03-29T12:49:46.621Z,52.32
2024-03-29T12:53:12.641Z,50.01
2024-03-29T12:56:37.661Z,49.63
2024-03-29T13:00:02.036Z,49.39
2024-03-29T13:03:26.107Z,46.58
2024-03-29T13:06:50.192Z,42.74
2024-03-29T13:10:15.793Z,42.97
2024-03-29T13:13:39.466Z,41.94
2024-03-29T13:17:03.142Z,41.30
2024-03-29T13:20:26.606Z,40.71
2024-03-29T13:23:50.245Z,41.22
2024-03-29T13:27:14.413Z,40.15
2024-03-29T13:30:43.939Z,39.81
2024-03-29T13:34:13.262Z,38.64
2024-03-29T13:37:41.946Z,37.70
2024-03-29T13:41:06.524Z,38.04
2024-03-29T13:44:32.084Z,38.64
2024-03-29T13:47:56.512Z,38.33
2024-03-29T13:51:20.103Z,38.00
2024-03-29T13:54:47.774Z,36.51
2024-03-29T13:58:11.568Z,36.57
2024-03-29T14:01:35.280Z,35.55
2024-03-29T14:04:59.618Z,35.42
2024-03-29T14:08:23.102Z,35.23
2024-03-29T14:11:47.894Z,34.68
2024-03-29T14:15:11.353Z,33.55
2024-03-29T14:18:38.172Z,33.77
2024-03-29T14:22:05.392Z,34.31
2024-03-29T14:25:28.976Z,35.08
2024-03-29T14:28:52.557Z,34.86
2024-03-29T14:32:16.113Z,35.68
2024-03-29T14:35:39.950Z,36.28
2024-03-29T14:39:03.419Z,35.99
2024-03-29T14:42:27.044Z,36.37
2024-03-29T14:45:51.280Z,36.50
2024-03-29T14:49:14.989Z,36.56
2024-03-29T14:52:41.489Z,35.52
2024-03-29T14:56:13.506Z,36.64
2024-03-29T14:59:41.707Z,36.68
2024-03-29T15:03:05.415Z,36.21
2024-03-29T15:06:29.123Z,36.20
2024-03-29T15:09:52.981Z,35.68
2024-03-29T15:13:16.450Z,35.62
2024-03-29T15:16:39.950Z,34.49
2024-03-29T15:20:06.128Z,34.88
2024-03-29T15:23:30.471Z,34.57
2024-03-29T15:26:59.159Z,34.50
2024-03-29T15:30:22.655Z,34.19
2024-03-29T15:33:46.246Z,35.45
2024-03-29T15:37:09.736Z,36.42
2024-03-29T15:40:33.199Z,36.71
2024-03-29T15:43:58.845Z,37.20
2024-03-29T15:47:23.067Z,37.96
2024-03-29T15:50:48.085Z,38.35
2024-03-29T15:54:17.399Z,38.98
2024-03-29T15:57:42.221Z,39.43
2024-03-29T16:01:06.003Z,39.77
2024-03-29T16:04:29.634Z,40.37
2024-03-29T16:07:53.397Z,40.67
2024-03-29T16:11:17.236Z,41.47
2024-03-29T16:14:40.754Z,41.76
2024-03-29T16:18:04.456Z,41.84
2024-03-29T16:21:28.422Z,42.55
2024-03-29T16:24:51.915Z,42.87
2024-03-29T16:28:16.288Z,43.64
2024-03-29T16:31:39.884Z,43.67
2024-03-29T16:35:03.438Z,43.76
2024-03-29T16:38:27.010Z,44.28
2024-03-29T16:41:50.970Z,44.91
2024-03-29T16:45:14.550Z,44.89
2024-03-29T16:48:38.164Z,45.40
2024-03-29T16:52:01.676Z,45.52
2024-03-29T16:55:26.430Z,46.33
2024-03-29T16:58:50.086Z,46.76
2024-03-29T17:02:13.801Z,47.57
2024-03-29T17:05:37.490Z,48.02
2024-03-29T17:09:01.056Z,48.79
2024-03-29T17:12:26.143Z,49.26
2024-03-29T17:15:50.646Z,49.98
2024-03-29T17:19:14.423Z,50.44
2024-03-29T17:22:39.108Z,50.73
2024-03-29T17:26:02.567Z,51.56
2024-03-29T17:29:26.815Z,52.27
2024-03-29T17:32:50.623Z,52.91
2024-03-29T17:36:14.068Z,53.24
2024-03-29T17:39:37.618Z,53.73
2024-03-29T17:43:01.239Z,54.45
2024-03-29T17:46:24.887Z,54.65
2024-03-29T17:49:48.426Z,55.60
2024-03-29T17:53:12.138Z,56.06
2024-03-29T17:56:35.672Z,56.66
2024-03-29T18:00:00.494Z,57.22
2024-03-29T18:03:24.642Z,58.08
2024-03-29T18:06:48.281Z,58.57
2024-03-29T18:10:12.409Z,59.44
2024-03-29T18:13:37.424Z,60.20
2024-03-29T18:17:00.987Z,60.39
2024-03-29T18:20:24.583Z,60.85
2024-03-29T18:23:48.079Z,61.96
2024-03-29T18:27:11.574Z,63.03
2024-03-29T18:30:36.892Z,64.07
2024-03-29T18:34:00.511Z,64.57
2024-03-29T18:37:24.048Z,65.62
2024-03-29T18:40:48.515Z,66.13
2024-03-29T18:44:11.997Z,67.04
2024-03-29T18:47:35.580Z,67.93
2024-03-29T18:51:00.453Z,68.42
2024-03-29T18:54:24.209Z,69.22
2024-03-29T18:57:47.691Z,69.26
2024-03-29T19:01:11.111Z,69.24
2024-03-29T19:04:35.243Z,69.70
2024-03-29T19:07:59.069Z,70.71
2024-03-29T19:11:24.975Z,71.56
2024-03-29T19:14:49.210Z,72.11
2024-03-29T19:18:14.524Z,72.97
2024-03-29T19:21:39.708Z,73.46
2024-03-29T19:25:03.215Z,75.09
2024-03-29T19:28:28.140Z,75.23
2024-03-29T19:31:51.734Z,76.55
2024-03-29T19:35:15.368Z,77.66
2024-03-29T19:38:38.861Z,78.63
2024-03-29T19:42:02.658Z,81.30
2024-03-29T19:45:26.258Z,82.82
2024-03-29T19:48:50.356Z,85.20
2024-03-29T19:52:13.923Z,88.18
2024-03-29T19:55:37.381Z,90.60
2024-03-29T19:59:01.165Z,92.18
2024-03-29T20:02:24.826Z,97.44
2024-03-29T20:05:48.314Z,98.66
2024-03-29T20:09:11.876Z,99.68
2024-03-29T20:12:35.438Z,99.59
2024-03-29T20:15:59.105Z,100.00
2024-03-29T20:19:27.600Z,100.00
2024-03-29T20:22:52.692Z,100.00
2024-03-29T20:26:16.259Z,100.00
2024-03-29T20:29:39.831Z,100.00
2024-03-29T20:33:04.617Z,100.00
2024-03-29T20:36:28.088Z,100.00
2024-03-29T20:39:51.594Z,100.00
2024-03-29T20:43:15.148Z,100.00
2024-03-29T20:46:38.643Z,100.00
2024-03-29T20:50:02.304Z,100.00
2024-03-29T20:53:25.938Z,100.00
2024-03-29T20:56:49.786Z,100.00
2024-03-29T21:00:13.778Z,100.00
2024-03-29T21:03:54.741Z,100.00
2024-03-29T21:07:18.393Z,100.00
2024-03-29T21:10:41.920Z,100.00
2024-03-29T21:14:05.492Z,100.00
2024-03-29T21:17:29.246Z,100.00
2024-03-29T21:20:53.095Z,100.00
2024-03-29T21:24:17.748Z,100.00
2024-03-29T21:27:45.269Z,100.00
2024-03-29T21:31:08.851Z,100.00
2024-03-29T21:34:32.330Z,100.00
2024-03-29T21:37:56.206Z,100.00
2024-03-29T21:41:19.990Z,100.00
2024-03-29T21:44:43.744Z,100.00
2024-03-29T21:48:07.516Z,100.00
2024-03-29T21:51:31.207Z,100.00
2024-03-29T21:54:54.874Z,100.00
2024-03-29T21:58:18.408Z,100.00
2024-03-29T22:01:42.258Z,100.00
2024-03-29T22:05:05.957Z,100.00
2024-03-29T22:08:29.491Z,100.00
2024-03-29T22:11:53.064Z,100.00
2024-03-29T22:15:36.542Z,100.00
2024-03-29T22:19:33.495Z,100.00
2024-03-29T22:23:31.469Z,100.00
2024-03-29T22:27:28.513Z,100.00
2024-03-29T22:31:26.467Z,100.00
2024-03-29T22:35:23.549Z,100.00
2024-03-29T22:39:20.457Z,100.00
2024-03-29T22:43:17.440Z,100.00
2024-03-29T22:47:15.457Z,100.00
2024-03-29T22:51:13.423Z,100.00
2024-03-29T22:55:10.499Z,100.00
2024-03-29T22:59:10.462Z,100.00
2024-03-29T23:03:07.408Z,100.00
2024-03-29T23:07:12.426Z,100.00
2024-03-29T23:11:10.427Z,100.00
2024-03-29T23:15:07.474Z,100.00
2024-03-29T23:19:05.399Z,100.00
2024-03-29T23:23:05.388Z,100.00
2024-03-29T23:27:02.421Z,100.00
2024-03-29T23:31:00.418Z,100.00
2024-03-29T23:34:57.375Z,100.00
2024-03-29T23:38:54.393Z,100.00
2024-03-29T23:42:52.413Z,100.00
2024-03-29T23:46:49.397Z,100.00
2024-03-29T23:50:46.405Z,100.00
2024-03-29T23:54:43.377Z,100.00
2024-03-29T23:58:41.382Z,100.00
